Time,TemperatureF,DewpointF,PressureIn,WindDirection,WindDirectionDegrees,WindSpeedMPH,WindSpeedGustMPH,Humidity,HourlyPrecipIn,Conditions,Clouds,dailyrainin,SoftwareType,DateUTC
2013-02-26 00:01:00,34.0,28.0,30.01,NE,46,8.0,11.0,80,0.00,,,0.01,,2013-02-26 05:01:00,
2013-02-26 00:11:00,34.0,28.0,29.99,ENE,65,8.0,13.0,79,0.00,,,0.01,,2013-02-26 05:11:00,
2013-02-26 00:21:00,34.0,28.0,29.99,ENE,65,8.0,13.0,79,0.00,,,0.01,,2013-02-26 05:21:00,
2013-02-26 00:31:00,34.0,28.0,29.98,NE,44,7.0,12.0,79,0.00,,,0.01,,2013-02-26 05:31:00,
2013-02-26 00:42:00,34.0,28.0,29.98,NE,44,7.0,12.0,79,0.00,,,0.01,,2013-02-26 05:42:00,
2013-02-26 00:52:00,34.0,28.0,29.98,ENE,72,7.0,10.0,79,0.00,,,0.01,,2013-02-26 05:52:00,
2013-02-26 01:01:00,34.0,28.0,29.98,NE,47,8.0,14.0,79,0.00,,,0.01,,2013-02-26 06:01:00,
2013-02-26 01:11:00,34.0,28.0,29.98,NE,47,8.0,14.0,79,0.00,,,0.01,,2013-02-26 06:11:00,
2013-02-26 01:21:00,34.0,28.0,29.96,ENE,70,8.0,14.0,79,0.00,,,0.01,,2013-02-26 06:21:00,
2013-02-26 01:31:00,34.0,28.0,29.95,ENE,65,7.0,15.0,79,0.00,,,0.01,,2013-02-26 06:31:00,
2013-02-26 01:41:00,34.0,28.0,29.95,ENE,65,7.0,15.0,79,0.00,,,0.01,,2013-02-26 06:41:00,
2013-02-26 01:52:00,34.0,28.0,29.94,ENE,65,9.0,12.0,79,0.00,,,0.01,,2013-02-26 06:52:00,
2013-02-26 02:01:00,34.0,28.0,29.94,ENE,66,9.0,15.0,80,0.00,,,0.01,,2013-02-26 07:01:00,
2013-02-26 02:11:00,34.0,28.0,29.94,ENE,66,9.0,15.0,80,0.00,,,0.01,,2013-02-26 07:11:00,
2013-02-26 02:22:00,34.0,28.0,29.94,ENE,65,9.0,14.0,80,0.00,,,0.01,,2013-02-26 07:22:00,
2013-02-26 02:31:00,34.0,28.0,29.93,ENE,60,10.0,18.0,80,0.00,,,0.01,,2013-02-26 07:31:00,
2013-02-26 02:41:00,34.0,28.0,29.93,ENE,60,10.0,18.0,80,0.00,,,0.01,,2013-02-26 07:41:00,
2013-02-26 02:52:00,33.0,28.0,29.92,NE,53,7.0,14.0,80,0.00,,,0.01,,2013-02-26 07:52:00,
2013-02-26 03:01:00,33.0,28.0,29.91,NE,49,8.0,12.0,80,0.00,,,0.01,,2013-02-26 08:01:00,
2013-02-26 03:11:00,33.0,28.0,29.91,ENE,68,9.0,12.0,80,0.00,,,0.01,,2013-02-26 08:11:00,
2013-02-26 03:21:00,33.0,28.0,29.91,ENE,68,9.0,12.0,80,0.00,,,0.01,,2013-02-26 08:21:00,
2013-02-26 03:31:00,33.0,28.0,29.89,ENE,76,9.0,13.0,80,0.00,,,0.01,,2013-02-26 08:31:00,
2013-02-26 03:41:00,33.0,28.0,29.89,ENE,76,9.0,13.0,80,0.00,,,0.01,,2013-02-26 08:41:00,
2013-02-26 03:52:00,33.0,28.0,29.88,East,84,8.0,12.0,80,0.00,,,0.01,,2013-02-26 08:52:00,
2013-02-26 04:01:00,33.0,27.0,29.85,NE,42,7.0,14.0,79,0.00,,,0.01,,2013-02-26 09:01:00,
2013-02-26 04:11:00,33.0,27.0,29.85,NE,42,7.0,14.0,79,0.00,,,0.01,,2013-02-26 09:11:00,
2013-02-26 04:21:00,33.0,27.0,29.85,NE,56,8.0,15.0,79,0.00,,,0.01,,2013-02-26 09:21:00,
2013-02-26 04:31:00,33.0,27.0,29.85,ENE,61,7.0,13.0,78,0.00,,,0.01,,2013-02-26 09:31:00,
2013-02-26 04:43:00,33.0,27.0,29.85,ENE,61,7.0,13.0,78,0.00,,,0.01,,2013-02-26 09:43:00,
2013-02-26 04:52:00,33.0,27.0,29.85,ENE,60,7.0,13.0,78,0.00,,,0.01,,2013-02-26 09:52:00,
2013-02-26 05:01:00,33.0,27.0,29.84,NE,42,10.0,14.0,77,0.00,,,0.01,,2013-02-26 10:01:00,
2013-02-26 05:11:00,33.0,27.0,29.84,NE,42,10.0,14.0,77,0.00,,,0.01,,2013-02-26 10:11:00,
2013-02-26 05:21:00,33.0,26.0,29.83,ENE,63,10.0,14.0,76,0.00,,,0.01,,2013-02-26 10:21:00,
2013-02-26 05:31:00,33.0,26.0,29.80,NE,56,10.0,18.0,76,0.00,,,0.01,,2013-02-26 10:31:00,
2013-02-26 05:41:00,33.0,26.0,29.80,NE,56,10.0,18.0,76,0.00,,,0.01,,2013-02-26 10:41:00,
2013-02-26 05:52:00,33.0,27.0,29.79,NE,35,10.0,19.0,78,0.00,,,0.01,,2013-02-26 10:52:00,
2013-02-26 06:01:00,33.0,27.0,29.78,ENE,63,14.0,20.0,77,0.00,,,0.01,,2013-02-26 11:01:00,
2013-02-26 06:11:00,33.0,27.0,29.78,ENE,63,14.0,20.0,77,0.00,,,0.01,,2013-02-26 11:11:00,
2013-02-26 06:21:00,33.0,27.0,29.75,NE,54,11.0,22.0,77,0.00,,,0.01,,2013-02-26 11:21:00,
2013-02-26 06:32:00,33.0,27.0,29.76,ENE,60,12.0,20.0,77,0.00,,,0.01,,2013-02-26 11:32:00,
2013-02-26 06:42:00,33.0,27.0,29.76,ENE,60,12.0,20.0,77,0.00,,,0.01,,2013-02-26 11:42:00,
2013-02-26 06:52:00,33.0,26.0,29.75,ENE,58,11.0,18.0,76,0.00,,,0.01,,2013-02-26 11:52:00,
2013-02-26 07:01:00,33.0,26.0,29.74,NE,43,12.0,21.0,75,0.00,,,0.01,,2013-02-26 12:01:00,
2013-02-26 07:11:00,33.0,26.0,29.74,NE,43,12.0,21.0,75,0.00,,,0.01,,2013-02-26 12:11:00,
2013-02-26 07:22:00,34.0,27.0,29.74,NE,54,10.0,17.0,75,0.00,,,0.01,,2013-02-26 12:22:00,
2013-02-26 07:32:00,34.0,27.0,29.75,East,82,11.0,17.0,74,0.00,,,0.01,,2013-02-26 12:32:00,
2013-02-26 07:42:00,34.0,27.0,29.75,East,82,11.0,17.0,74,0.00,,,0.01,,2013-02-26 12:42:00,
2013-02-26 07:53:00,34.0,26.0,29.76,NE,54,10.0,16.0,73,0.00,,,0.01,,2013-02-26 12:53:00,
2013-02-26 08:01:00,34.0,26.0,29.77,ENE,65,9.0,13.0,71,0.00,,,0.01,,2013-02-26 13:01:00,
2013-02-26 08:11:00,34.0,26.0,29.77,ENE,65,9.0,13.0,71,0.00,,,0.01,,2013-02-26 13:11:00,
2013-02-26 08:21:00,35.0,26.0,29.76,ENE,58,8.0,18.0,69,0.00,,,0.01,,2013-02-26 13:21:00,
2013-02-26 08:32:00,35.0,25.0,29.75,East,96,13.0,17.0,67,0.00,,,0.01,,2013-02-26 13:32:00,
2013-02-26 08:42:00,35.0,25.0,29.75,East,96,13.0,17.0,67,0.00,,,0.01,,2013-02-26 13:42:00,
2013-02-26 08:52:00,35.0,25.0,29.72,ENE,64,16.0,21.0,66,0.00,,,0.01,,2013-02-26 13:52:00,
2013-02-26 09:01:00,35.0,24.0,29.71,ENE,75,15.0,24.0,65,0.00,,,0.01,,2013-02-26 14:01:00,
2013-02-26 09:11:00,35.0,24.0,29.71,ENE,75,15.0,24.0,65,0.00,,,0.01,,2013-02-26 14:11:00,
2013-02-26 09:21:00,36.0,25.0,29.71,ENE,72,14.0,20.0,65,0.00,,,0.01,,2013-02-26 14:21:00,
2013-02-26 09:32:00,36.0,25.0,29.69,ENE,77,12.0,21.0,65,0.00,,,0.01,,2013-02-26 14:32:00,
2013-02-26 09:42:00,36.0,25.0,29.69,ENE,77,12.0,21.0,65,0.00,,,0.01,,2013-02-26 14:42:00,
2013-02-26 09:52:00,35.0,25.0,29.66,ENE,68,14.0,23.0,67,0.00,,,0.01,,2013-02-26 14:52:00,
2013-02-26 10:02:00,35.0,27.0,29.65,NE,44,13.0,20.0,72,0.00,,,0.01,,2013-02-26 15:02:00,
2013-02-26 10:11:00,35.0,27.0,29.65,NE,44,13.0,20.0,72,0.00,,,0.01,,2013-02-26 15:11:00,
2013-02-26 10:21:00,35.0,28.0,29.63,ENE,68,11.0,21.0,74,0.00,,,0.01,,2013-02-26 15:21:00,
2013-02-26 10:32:00,34.0,28.0,29.61,NE,55,12.0,19.0,79,0.01,,,0.02,,2013-02-26 15:32:00,
2013-02-26 10:42:00,34.0,28.0,29.61,NE,55,12.0,19.0,79,0.01,,,0.02,,2013-02-26 15:42:00,
2013-02-26 10:52:00,34.0,29.0,29.61,NE,47,9.0,16.0,83,0.02,,,0.03,,2013-02-26 15:52:00,
2013-02-26 11:01:00,33.0,29.0,29.61,NE,41,9.0,15.0,85,0.04,,,0.05,,2013-02-26 16:01:00,
2013-02-26 11:11:00,33.0,29.0,29.61,NE,41,9.0,15.0,85,0.04,,,0.05,,2013-02-26 16:11:00,
2013-02-26 11:22:00,33.0,30.0,29.59,East,84,9.0,15.0,88,0.07,,,0.08,,2013-02-26 16:22:00,
2013-02-26 11:32:00,33.0,30.0,29.59,ENE,62,9.0,15.0,89,0.11,,,0.13,,2013-02-26 16:32:00,
2013-02-26 11:42:00,33.0,30.0,29.59,ENE,62,9.0,15.0,89,0.11,,,0.13,,2013-02-26 16:42:00,
2013-02-26 11:52:00,33.0,30.0,29.61,NNE,27,7.0,11.0,90,0.14,,,0.17,,2013-02-26 16:52:00,
2013-02-26 12:01:00,33.0,31.0,29.59,NE,48,8.0,16.0,91,0.15,,,0.20,,2013-02-26 17:01:00,
2013-02-26 12:11:00,33.0,31.0,29.59,NE,39,5.0,11.0,91,0.15,,,0.22,,2013-02-26 17:11:00,
2013-02-26 12:21:00,33.0,31.0,29.59,NE,39,5.0,11.0,91,0.15,,,0.22,,2013-02-26 17:21:00,
2013-02-26 12:32:00,33.0,31.0,29.59,ENE,64,5.0,9.0,92,0.11,,,0.23,,2013-02-26 17:32:00,
2013-02-26 12:41:00,33.0,31.0,29.59,ENE,64,5.0,9.0,92,0.11,,,0.23,,2013-02-26 17:41:00,
2013-02-26 12:52:00,33.0,31.0,29.58,NE,55,4.0,9.0,92,0.07,,,0.23,,2013-02-26 17:52:00,
2013-02-26 13:01:00,32.0,30.0,29.57,NE,34,6.0,10.0,93,0.04,,,0.23,,2013-02-26 18:01:00,
2013-02-26 13:12:00,32.0,30.0,29.57,NE,34,6.0,10.0,93,0.04,,,0.23,,2013-02-26 18:12:00,
2013-02-26 13:21:00,32.0,30.0,29.56,ENE,62,5.0,10.0,94,0.01,,,0.23,,2013-02-26 18:21:00,
2013-02-26 13:32:00,32.0,31.0,29.55,ENE,60,6.0,11.0,95,0.00,,,0.23,,2013-02-26 18:32:00,
2013-02-26 13:42:00,32.0,31.0,29.55,ENE,60,6.0,11.0,95,0.00,,,0.23,,2013-02-26 18:42:00,
2013-02-26 13:52:00,32.0,31.0,29.54,NE,53,6.0,9.0,95,0.00,,,0.23,,2013-02-26 18:52:00,
2013-02-26 14:01:00,32.0,31.0,29.53,NE,46,6.0,8.0,96,0.00,,,0.23,,2013-02-26 19:01:00,
2013-02-26 14:11:00,32.0,31.0,29.53,NE,46,6.0,8.0,96,0.00,,,0.23,,2013-02-26 19:11:00,
2013-02-26 14:22:00,32.0,31.0,29.53,ENE,65,7.0,11.0,96,0.00,,,0.23,,2013-02-26 19:22:00,
2013-02-26 14:32:00,32.0,31.0,29.52,NE,53,7.0,10.0,96,0.00,,,0.23,,2013-02-26 19:32:00,
2013-02-26 14:41:00,32.0,31.0,29.52,NE,53,7.0,10.0,96,0.00,,,0.23,,2013-02-26 19:41:00,
2013-02-26 14:52:00,32.0,31.0,29.52,NE,44,7.0,11.0,96,0.00,,,0.23,,2013-02-26 19:52:00,
2013-02-26 15:01:00,32.0,31.0,29.52,NNE,22,6.0,11.0,96,0.00,,,0.23,,2013-02-26 20:01:00,
2013-02-26 15:11:00,32.0,31.0,29.52,NNE,22,6.0,11.0,96,0.00,,,0.23,,2013-02-26 20:11:00,
2013-02-26 15:21:00,32.0,31.0,29.52,NNE,30,6.0,11.0,96,0.00,,,0.23,,2013-02-26 20:21:00,
2013-02-26 15:31:00,33.0,32.0,29.52,NNE,32,7.0,11.0,97,0.00,,,0.23,,2013-02-26 20:31:00,
2013-02-26 15:41:00,33.0,32.0,29.52,NNE,32,7.0,11.0,97,0.00,,,0.23,,2013-02-26 20:41:00,
2013-02-26 15:52:00,33.0,32.0,29.51,NE,56,7.0,11.0,97,0.00,,,0.23,,2013-02-26 20:52:00,
2013-02-26 16:01:00,33.0,32.0,29.51,NE,53,8.0,15.0,97,0.00,,,0.23,,2013-02-26 21:01:00,
2013-02-26 16:11:00,33.0,32.0,29.51,NE,53,8.0,15.0,97,0.00,,,0.23,,2013-02-26 21:11:00,
2013-02-26 16:21:00,33.0,32.0,29.52,NE,44,8.0,13.0,97,0.00,,,0.23,,2013-02-26 21:21:00,
2013-02-26 16:31:00,33.0,32.0,29.51,NE,56,10.0,16.0,97,0.00,,,0.23,,2013-02-26 21:31:00,
2013-02-26 16:41:00,33.0,32.0,29.51,NE,56,10.0,16.0,97,0.00,,,0.23,,2013-02-26 21:41:00,
2013-02-26 16:51:00,33.0,32.0,29.51,NE,56,10.0,16.0,97,0.00,,,0.23,,2013-02-26 21:51:00,
2013-02-26 17:01:00,33.0,32.0,29.51,NE,56,10.0,16.0,97,0.00,,,0.23,,2013-02-26 22:01:00,
2013-02-26 17:11:00,32.0,31.0,29.51,NE,50,10.0,18.0,97,0.00,,,0.23,,2013-02-26 22:11:00,
2013-02-26 17:21:00,32.0,31.0,29.51,NE,50,10.0,18.0,97,0.00,,,0.23,,2013-02-26 22:21:00,
2013-02-26 17:32:00,32.0,31.0,29.51,NE,40,14.0,21.0,97,0.00,,,0.23,,2013-02-26 22:32:00,
2013-02-26 17:42:00,32.0,31.0,29.51,NE,40,14.0,21.0,97,0.00,,,0.23,,2013-02-26 22:42:00,
2013-02-26 17:52:00,32.0,31.0,29.51,NNE,22,10.0,21.0,97,0.00,,,0.23,,2013-02-26 22:52:00,
2013-02-26 18:01:00,32.0,31.0,29.52,NE,45,10.0,19.0,97,0.00,,,0.23,,2013-02-26 23:01:00,
2013-02-26 18:11:00,32.0,31.0,29.52,NE,45,10.0,19.0,97,0.00,,,0.23,,2013-02-26 23:11:00,
2013-02-26 18:21:00,32.0,31.0,29.51,NNE,18,13.0,17.0,97,0.00,,,0.23,,2013-02-26 23:21:00,
2013-02-26 18:31:00,32.0,31.0,29.52,NE,36,14.0,18.0,97,0.00,,,0.23,,2013-02-26 23:31:00,
2013-02-26 18:41:00,32.0,31.0,29.52,NE,36,14.0,18.0,97,0.00,,,0.23,,2013-02-26 23:41:00,
2013-02-26 18:52:00,32.0,31.0,29.52,NE,51,10.0,18.0,97,0.00,,,0.23,,2013-02-26 23:52:00,
2013-02-26 19:01:00,32.0,31.0,29.53,NNE,22,12.0,18.0,97,0.00,,,0.23,,2013-02-27 00:01:00,
2013-02-26 19:11:00,32.0,31.0,29.53,NNE,22,12.0,18.0,97,0.00,,,0.23,,2013-02-27 00:11:00,
2013-02-26 19:21:00,32.0,31.0,29.53,NNE,22,12.0,18.0,97,0.00,,,0.23,,2013-02-27 00:21:00,
2013-02-26 19:31:00,32.0,31.0,29.53,NNE,22,12.0,18.0,97,0.00,,,0.23,,2013-02-27 00:31:00,
2013-02-26 19:52:00,32.0,31.0,29.53,NE,55,9.0,13.0,97,0.00,,,0.23,,2013-02-27 00:52:00,
2013-02-26 20:01:00,32.0,31.0,29.53,NNE,25,8.0,13.0,97,0.00,,,0.23,,2013-02-27 01:01:00,
2013-02-26 20:11:00,32.0,31.0,29.53,NNE,25,8.0,13.0,97,0.00,,,0.23,,2013-02-27 01:11:00,
2013-02-26 20:21:00,32.0,31.0,29.53,NNE,28,9.0,12.0,97,0.00,,,0.23,,2013-02-27 01:21:00,
2013-02-26 20:32:00,32.0,31.0,29.53,NNE,18,8.0,12.0,97,0.00,,,0.23,,2013-02-27 01:32:00,
2013-02-26 20:42:00,32.0,31.0,29.53,NNE,18,8.0,12.0,97,0.00,,,0.23,,2013-02-27 01:42:00,
2013-02-26 20:52:00,32.0,31.0,29.53,NNE,22,11.0,15.0,97,0.00,,,0.23,,2013-02-27 01:52:00,
2013-02-26 21:01:00,32.0,31.0,29.53,North,4,8.0,16.0,97,0.00,,,0.23,,2013-02-27 02:01:00,
2013-02-26 21:14:00,32.0,31.0,29.53,North,4,8.0,16.0,97,0.00,,,0.23,,2013-02-27 02:14:00,
2013-02-26 21:23:00,32.0,31.0,29.53,NE,43,9.0,12.0,97,0.00,,,0.23,,2013-02-27 02:23:00,
2013-02-26 21:32:00,32.0,31.0,29.53,NNE,26,10.0,12.0,97,0.00,,,0.23,,2013-02-27 02:32:00,
2013-02-26 21:42:00,32.0,31.0,29.53,NNE,26,10.0,12.0,97,0.00,,,0.23,,2013-02-27 02:42:00,
2013-02-26 21:52:00,32.0,31.0,29.53,NE,47,7.0,13.0,97,0.00,,,0.23,,2013-02-27 02:52:00,
2013-02-26 22:01:00,32.0,32.0,29.53,NE,49,8.0,12.0,98,0.00,,,0.23,,2013-02-27 03:01:00,
2013-02-26 22:11:00,32.0,32.0,29.53,NE,49,8.0,12.0,98,0.00,,,0.23,,2013-02-27 03:11:00,
2013-02-26 22:21:00,32.0,32.0,29.53,NE,43,8.0,11.0,98,0.00,,,0.23,,2013-02-27 03:21:00,
2013-02-26 22:32:00,32.0,32.0,29.52,NNE,29,9.0,12.0,98,0.00,,,0.23,,2013-02-27 03:32:00,
2013-02-26 22:41:00,32.0,32.0,29.52,NNE,29,9.0,12.0,98,0.00,,,0.23,,2013-02-27 03:41:00,
2013-02-26 22:52:00,32.0,32.0,29.52,NE,43,9.0,12.0,98,0.00,,,0.23,,2013-02-27 03:52:00,
2013-02-26 23:01:00,32.0,32.0,29.53,NNE,30,7.0,11.0,98,0.00,,,0.23,,2013-02-27 04:01:00,
2013-02-26 23:11:00,32.0,32.0,29.53,NNE,30,7.0,11.0,98,0.00,,,0.23,,2013-02-27 04:11:00,
2013-02-26 23:21:00,32.0,32.0,29.53,NNE,24,6.0,10.0,98,0.00,,,0.23,,2013-02-27 04:21:00,
2013-02-26 23:32:00,32.0,32.0,29.53,NE,34,7.0,10.0,98,0.00,,,0.23,,2013-02-27 04:32:00,
2013-02-26 23:41:00,32.0,32.0,29.53,NE,34,7.0,10.0,98,0.00,,,0.23,,2013-02-27 04:41:00,
2013-02-26 23:52:00,32.0,32.0,29.53,NE,45,7.0,10.0,98,0.01,,,0.24,,2013-02-27 04:52:00,